createdAt,value
2022-11-07T00:00:30.020Z,1.58
2022-11-07T00:02:57.464Z,1.90
2022-11-07T00:05:24.605Z,1.85
2022-11-07T00:07:51.680Z,1.75
2022-11-07T00:10:18.776Z,1.98
2022-11-07T00:12:45.896Z,2.30
2022-11-07T00:15:12.980Z,1.90
2022-11-07T00:17:40.104Z,3.00
2022-11-07T00:20:07.559Z,5.68
2022-11-07T00:22:34.757Z,1.88
2022-11-07T00:25:01.861Z,1.88
2022-11-07T00:27:28.997Z,1.80
2022-11-07T00:29:56.281Z,2.38
2022-11-07T00:32:23.405Z,1.80
2022-11-07T00:34:50.514Z,1.88
2022-11-07T00:37:17.638Z,2.13
2022-11-07T00:39:44.816Z,1.52
2022-11-07T00:42:11.942Z,3.58
2022-11-07T00:44:39.039Z,2.92
2022-11-07T00:47:06.140Z,1.35
2022-11-07T00:49:33.368Z,1.30
2022-11-07T00:52:00.466Z,1.80
2022-11-07T00:54:27.531Z,1.90
2022-11-07T00:56:54.651Z,2.20
2022-11-07T00:59:21.783Z,1.42
2022-11-07T01:01:48.990Z,1.90
2022-11-07T01:04:35.105Z,1.42
2022-11-07T01:07:02.686Z,2.03
2022-11-07T01:09:29.776Z,1.10
2022-11-07T01:11:56.863Z,2.05
2022-11-07T01:14:24.731Z,4.38
2022-11-07T01:16:51.909Z,1.77
2022-11-07T01:19:19.801Z,1.27
2022-11-07T01:21:46.920Z,1.70
2022-11-07T01:24:14.891Z,1.40
2022-11-07T01:26:43.179Z,1.35
2022-11-07T01:29:11.071Z,1.40
2022-11-07T01:31:38.218Z,1.92
2022-11-07T01:34:05.384Z,1.45
2022-11-07T01:36:32.727Z,2.10
2022-11-07T01:38:59.967Z,2.33
2022-11-07T01:41:28.525Z,3.05
2022-11-07T01:43:57.384Z,1.52
2022-11-07T01:46:33.494Z,2.47
2022-11-07T01:49:06.621Z,1.33
2022-11-07T01:51:35.201Z,2.47
2022-11-07T01:54:03.548Z,1.90
2022-11-07T01:56:32.455Z,2.10
2022-11-07T01:58:59.924Z,1.00
2022-11-07T02:01:27.376Z,3.92
2022-11-07T02:03:55.407Z,3.42
2022-11-07T02:06:29.700Z,1.80
2022-11-07T02:08:56.862Z,4.05
2022-11-07T02:11:24.577Z,1.55
2022-11-07T02:13:51.670Z,2.10
2022-11-07T02:16:18.816Z,2.58
2022-11-07T02:18:46.710Z,7.88
2022-11-07T02:21:18.464Z,2.25
2022-11-07T02:23:52.553Z,1.55
2022-11-07T02:26:19.936Z,2.45
2022-11-07T02:28:48.142Z,1.63
2022-11-07T02:31:15.211Z,4.50
2022-11-07T02:33:42.322Z,1.70
2022-11-07T02:36:13.663Z,1.85
2022-11-07T02:38:40.871Z,3.05
2022-11-07T02:41:10.843Z,2.28
2022-11-07T02:43:39.815Z,1.88
2022-11-07T02:46:08.194Z,2.22
2022-11-07T02:48:42.013Z,2.58
2022-11-07T02:51:09.110Z,2.13
2022-11-07T02:53:36.262Z,1.80
2022-11-07T02:56:03.375Z,1.40
2022-11-07T02:58:30.456Z,2.17
2022-11-07T03:01:06.856Z,1.40
2022-11-07T03:03:35.171Z,1.25
2022-11-07T03:06:02.603Z,2.20
2022-11-07T03:08:29.767Z,4.20
2022-11-07T03:10:56.833Z,1.92
2022-11-07T03:13:24.219Z,1.63
2022-11-07T03:15:51.380Z,2.08
2022-11-07T03:18:18.728Z,1.95
2022-11-07T03:20:46.026Z,1.52
2022-11-07T03:23:13.440Z,3.03
2022-11-07T03:25:40.754Z,2.40
2022-11-07T03:28:07.844Z,1.75
2022-11-07T03:30:34.909Z,1.80
2022-11-07T03:33:02.058Z,3.17
2022-11-07T03:35:29.169Z,2.45
2022-11-07T03:37:56.268Z,2.67
2022-11-07T03:40:23.380Z,3.05
2022-11-07T03:42:50.453Z,2.05
2022-11-07T03:45:18.101Z,2.25
2022-11-07T03:47:45.866Z,3.30
2022-11-07T03:50:17.468Z,7.75
2022-11-07T03:52:44.632Z,2.42
2022-11-07T03:55:12.278Z,1.90
2022-11-07T03:57:39.365Z,2.90
2022-11-07T04:00:07.290Z,4.93
2022-11-07T04:02:34.566Z,4.10
2022-11-07T04:05:01.775Z,1.70
2022-11-07T04:07:28.879Z,4.03
2022-11-07T04:09:56.056Z,2.22
2022-11-07T04:12:42.121Z,1.90
2022-11-07T04:15:30.610Z,2.13
2022-11-07T04:17:57.841Z,3.88
2022-11-07T04:20:24.926Z,2.05
2022-11-07T04:22:52.017Z,2.63
2022-11-07T04:25:39.030Z,1.85
2022-11-07T04:28:06.120Z,2.40
2022-11-07T04:30:33.232Z,2.40
2022-11-07T04:33:01.513Z,3.47
2022-11-07T04:35:30.065Z,3.28
2022-11-07T04:37:57.216Z,1.60
2022-11-07T04:40:24.273Z,2.72
2022-11-07T04:42:51.519Z,4.60
2022-11-07T04:45:18.918Z,1.88
2022-11-07T04:47:46.340Z,2.53
2022-11-07T04:50:15.085Z,3.70
2022-11-07T04:52:42.214Z,5.10
2022-11-07T04:55:10.549Z,4.78
2022-11-07T04:57:37.684Z,2.20
2022-11-07T05:00:04.984Z,5.35
2022-11-07T05:02:32.225Z,5.32
2022-11-07T05:04:59.341Z,3.72
2022-11-07T05:07:26.464Z,3.72
2022-11-07T05:09:53.583Z,5.10
2022-11-07T05:12:20.673Z,5.05
2022-11-07T05:14:47.733Z,3.85
2022-11-07T05:17:15.350Z,3.55
2022-11-07T05:19:45.717Z,2.10
2022-11-07T05:22:31.405Z,3.70
2022-11-07T05:24:58.701Z,3.10
2022-11-07T05:27:25.775Z,2.33
2022-11-07T05:29:53.205Z,3.78
2022-11-07T05:32:20.307Z,4.50
2022-11-07T05:34:47.419Z,4.95
2022-11-07T05:37:14.711Z,1.55
2022-11-07T05:39:41.831Z,4.63
2022-11-07T05:42:08.887Z,4.30
2022-11-07T05:44:36.048Z,2.58
2022-11-07T05:47:03.121Z,2.17
2022-11-07T05:49:30.204Z,5.35
2022-11-07T05:51:57.620Z,2.63
2022-11-07T05:54:27.846Z,3.13
2022-11-07T05:56:58.371Z,3.40
2022-11-07T05:59:25.984Z,2.45
2022-11-07T06:01:53.783Z,1.67
2022-11-07T06:04:21.104Z,5.13
2022-11-07T06:06:48.184Z,10.63
2022-11-07T06:09:15.474Z,2.10
2022-11-07T06:11:42.683Z,3.40
2022-11-07T06:14:09.817Z,6.70
2022-11-07T06:16:37.097Z,4.35
2022-11-07T06:19:04.157Z,2.63
2022-11-07T06:21:31.343Z,4.00
2022-11-07T06:23:59.339Z,5.15
2022-11-07T06:26:26.781Z,1.83
2022-11-07T06:28:54.003Z,1.85
2022-11-07T06:31:21.171Z,4.22
2022-11-07T06:33:51.782Z,2.00
2022-11-07T06:36:19.264Z,2.22
2022-11-07T06:38:46.400Z,1.30
2022-11-07T06:41:14.885Z,3.58
2022-11-07T06:43:42.045Z,4.05
2022-11-07T06:46:10.914Z,2.15
2022-11-07T06:48:38.273Z,4.22
2022-11-07T06:51:06.539Z,3.97
2022-11-07T06:53:33.641Z,3.28
2022-11-07T06:56:00.982Z,7.25
2022-11-07T06:58:28.038Z,5.43
2022-11-07T07:00:59.104Z,6.65
2022-11-07T07:03:26.222Z,7.20
2022-11-07T07:05:53.325Z,2.92
2022-11-07T07:08:20.409Z,3.15
2022-11-07T07:10:47.551Z,3.50
2022-11-07T07:13:15.313Z,3.17
2022-11-07T07:15:51.005Z,5.68
2022-11-07T07:18:18.950Z,4.82
2022-11-07T07:20:46.457Z,1.83
2022-11-07T07:23:13.576Z,4.13
2022-11-07T07:25:40.655Z,2.85
2022-11-07T07:28:07.708Z,5.05
2022-11-07T07:30:34.801Z,5.05
2022-11-07T07:33:01.948Z,9.48
2022-11-07T07:35:29.022Z,5.57
2022-11-07T07:37:56.163Z,7.43
2022-11-07T07:40:23.300Z,3.53
2022-11-07T07:42:50.373Z,6.68
2022-11-07T07:45:17.788Z,6.60
2022-11-07T07:47:45.060Z,5.03
2022-11-07T07:50:13.037Z,5.25
2022-11-07T07:52:40.114Z,4.78
2022-11-07T07:55:11.467Z,5.45
2022-11-07T07:57:39.352Z,3.30
2022-11-07T08:00:06.666Z,4.90
2022-11-07T08:02:33.838Z,4.45
2022-11-07T08:05:00.966Z,2.00
2022-11-07T08:07:28.070Z,4.95
2022-11-07T08:09:55.155Z,3.58
2022-11-07T08:12:22.326Z,3.30
2022-11-07T08:14:49.390Z,2.80
2022-11-07T08:17:16.530Z,3.90
2022-11-07T08:19:43.606Z,5.25
2022-11-07T08:22:11.457Z,2.28
2022-11-07T08:24:38.694Z,2.05
2022-11-07T08:27:05.816Z,10.00
2022-11-07T08:29:32.964Z,3.05
2022-11-07T08:32:00.056Z,5.97
2022-11-07T08:34:27.401Z,6.78
2022-11-07T08:36:54.522Z,3.95
2022-11-07T08:39:21.644Z,3.97
2022-11-07T08:41:48.733Z,4.47
2022-11-07T08:44:15.866Z,5.93
2022-11-07T08:46:42.930Z,4.32
2022-11-07T08:49:10.039Z,2.50
2022-11-07T08:51:37.109Z,5.13
2022-11-07T08:54:04.239Z,5.80
2022-11-07T08:56:31.477Z,5.70
2022-11-07T08:58:58.527Z,4.65
2022-11-07T09:01:25.723Z,8.65
2022-11-07T09:03:56.743Z,9.73
2022-11-07T09:06:24.973Z,6.70
2022-11-07T09:08:52.041Z,4.32
2022-11-07T09:11:19.531Z,3.47
2022-11-07T09:13:47.231Z,6.88
2022-11-07T09:16:17.333Z,5.95
2022-11-07T09:18:45.111Z,10.00
2022-11-07T09:21:16.451Z,5.13
2022-11-07T09:23:46.370Z,4.68
2022-11-07T09:26:13.593Z,4.18
2022-11-07T09:28:40.753Z,4.05
2022-11-07T09:31:07.859Z,8.13
2022-11-07T09:33:35.011Z,6.82
2022-11-07T09:36:05.981Z,3.80
2022-11-07T09:38:33.326Z,5.75
2022-11-07T09:41:08.660Z,3.97
2022-11-07T09:43:44.693Z,6.55
2022-11-07T09:46:11.738Z,5.18
2022-11-07T09:48:46.729Z,4.43
2022-11-07T09:51:37.080Z,9.13
2022-11-07T09:54:15.919Z,3.90
2022-11-07T09:56:44.302Z,3.35
2022-11-07T09:59:17.967Z,5.20
2022-11-07T10:01:45.155Z,5.07
2022-11-07T10:04:25.892Z,5.28
2022-11-07T10:06:56.558Z,3.50
2022-11-07T10:09:32.563Z,5.22
2022-11-07T10:12:08.464Z,7.78
2022-11-07T10:15:00.421Z,3.53
2022-11-07T10:17:44.801Z,2.72
2022-11-07T10:20:23.511Z,4.15
2022-11-07T10:22:51.933Z,5.30
2022-11-07T10:25:25.463Z,3.35
2022-11-07T10:27:55.294Z,7.38
2022-11-07T10:30:22.550Z,5.28
2022-11-07T10:32:49.634Z,4.70
2022-11-07T10:35:24.512Z,3.90
2022-11-07T10:37:55.409Z,12.60
2022-11-07T10:40:23.324Z,6.85
2022-11-07T10:42:51.365Z,5.20
2022-11-07T10:45:18.803Z,3.00
2022-11-07T10:48:02.853Z,2.58
2022-11-07T10:50:30.593Z,8.35
2022-11-07T10:53:01.981Z,4.85
2022-11-07T10:55:31.389Z,28.42
2022-11-07T10:57:59.709Z,4.55
2022-11-07T11:00:30.687Z,4.20
2022-11-07T11:02:58.141Z,5.13
2022-11-07T11:05:25.281Z,5.10
2022-11-07T11:07:52.769Z,7.03
2022-11-07T11:10:22.949Z,10.68
2022-11-07T11:12:50.085Z,6.32
2022-11-07T11:15:19.258Z,6.50
2022-11-07T11:17:46.538Z,5.72
2022-11-07T11:20:43.049Z,6.15
2022-11-07T11:23:20.329Z,5.43
2022-11-07T11:25:48.730Z,6.57
2022-11-07T11:28:23.269Z,4.43
2022-11-07T11:30:54.192Z,4.75
2022-11-07T11:33:23.582Z,5.47
2022-11-07T11:35:54.485Z,5.95
2022-11-07T11:38:26.953Z,5.93
2022-11-07T11:41:04.699Z,8.13
2022-11-07T11:43:41.421Z,5.40
2022-11-07T11:46:20.972Z,2.88
2022-11-07T11:48:53.803Z,4.18
2022-11-07T11:51:37.107Z,6.80
2022-11-07T11:54:06.223Z,7.93
2022-11-07T11:56:39.747Z,5.38
2022-11-07T11:59:12.623Z,7.40
2022-11-07T12:01:39.665Z,10.73
2022-11-07T12:04:08.103Z,7.72
2022-11-07T12:06:39.919Z,9.25
2022-11-07T12:09:15.334Z,5.80
2022-11-07T12:12:03.461Z,8.00
2022-11-07T12:14:39.514Z,15.65
2022-11-07T12:17:09.365Z,14.60
2022-11-07T12:19:36.501Z,19.35
2022-11-07T12:22:22.351Z,7.50
2022-11-07T12:25:01.622Z,7.18
2022-11-07T12:27:51.744Z,5.93
2022-11-07T12:30:19.014Z,8.80
2022-11-07T12:33:01.573Z,10.07
2022-11-07T12:35:41.998Z,4.97
2022-11-07T12:38:33.327Z,5.47
2022-11-07T12:41:07.679Z,6.88
2022-11-07T12:43:37.573Z,4.78
2022-11-07T12:46:27.686Z,5.30
2022-11-07T12:49:09.083Z,4.97
2022-11-07T12:51:42.065Z,5.70
2022-11-07T12:54:23.236Z,5.13
2022-11-07T12:56:51.788Z,6.22
2022-11-07T12:59:24.727Z,6.53
2022-11-07T13:01:55.022Z,5.85
2022-11-07T13:04:33.161Z,6.28
2022-11-07T13:07:18.372Z,7.20
2022-11-07T13:09:56.808Z,3.35
2022-11-07T13:12:23.937Z,1.52
2022-11-07T13:14:51.435Z,5.30
2022-11-07T13:17:27.745Z,10.75
2022-11-07T13:20:02.600Z,7.22
2022-11-07T13:22:35.990Z,5.35
2022-11-07T13:25:16.383Z,4.82
2022-11-07T13:27:56.099Z,6.70
2022-11-07T13:30:24.325Z,2.88
2022-11-07T13:32:52.106Z,3.63
2022-11-07T13:35:25.306Z,4.50
2022-11-07T13:37:58.057Z,5.72
2022-11-07T13:42:58.258Z,4.72
2022-11-07T13:45:31.696Z,2.97
2022-11-07T13:48:00.775Z,3.58
2022-11-07T13:50:41.733Z,3.47
2022-11-07T13:53:17.250Z,3.30
2022-11-07T13:56:03.473Z,2.65
2022-11-07T13:58:32.145Z,4.38
2022-11-07T14:01:12.723Z,5.43
2022-11-07T14:03:39.908Z,4.93
2022-11-07T14:06:07.349Z,3.72
2022-11-07T14:08:37.325Z,3.72
2022-11-07T14:11:05.322Z,2.53
2022-11-07T14:13:40.918Z,2.15
2022-11-07T14:16:16.116Z,2.35
2022-11-07T14:19:03.498Z,3.28
2022-11-07T14:21:32.037Z,3.80
2022-11-07T14:23:59.389Z,4.28
2022-11-07T14:26:28.202Z,6.05
2022-11-07T14:28:56.880Z,4.53
2022-11-07T14:31:26.985Z,4.15
2022-11-07T14:34:02.454Z,2.75
2022-11-07T14:36:29.925Z,4.60
2022-11-07T14:39:12.786Z,4.20
2022-11-07T14:41:43.681Z,4.30
2022-11-07T14:44:14.310Z,4.50
2022-11-07T14:46:41.921Z,6.90
2022-11-07T14:49:15.898Z,4.75
2022-11-07T14:51:43.052Z,5.07
2022-11-07T14:54:11.710Z,6.68
2022-11-07T14:56:41.718Z,4.55
2022-11-07T14:59:11.744Z,6.72
2022-11-07T15:01:39.002Z,4.43
2022-11-07T15:04:27.670Z,7.43
2022-11-07T15:06:54.917Z,7.93
2022-11-07T15:09:32.457Z,5.55
2022-11-07T15:12:00.590Z,8.73
2022-11-07T15:14:37.701Z,7.57
2022-11-07T15:17:04.944Z,6.97
2022-11-07T15:19:33.710Z,6.80
2022-11-07T15:22:03.123Z,6.78
2022-11-07T15:24:33.365Z,7.70
2022-11-07T15:27:01.988Z,10.57
2022-11-07T15:29:33.585Z,6.00
2022-11-07T15:32:13.354Z,12.07
2022-11-07T15:35:01.013Z,3.88
2022-11-07T15:37:27.738Z,18.23
2022-11-07T15:39:55.027Z,11.80
2022-11-07T15:42:22.117Z,19.58
2022-11-07T15:44:49.205Z,21.63
2022-11-07T15:47:20.264Z,23.15
2022-11-07T15:49:47.912Z,31.05
2022-11-07T15:52:15.321Z,22.75
2022-11-07T15:54:42.414Z,18.60
2022-11-07T15:57:09.687Z,23.35
2022-11-07T15:59:38.029Z,14.65
2022-11-07T16:02:05.788Z,5.82
2022-11-07T16:04:37.866Z,5.43
2022-11-07T16:07:09.661Z,5.20
2022-11-07T16:09:36.725Z,5.53
2022-11-07T16:12:03.849Z,5.78
2022-11-07T16:14:43.534Z,4.93
2022-11-07T16:17:19.399Z,5.05
2022-11-07T16:19:46.959Z,4.57
2022-11-07T16:22:15.188Z,4.20
2022-11-07T16:24:42.641Z,2.60
2022-11-07T16:27:14.873Z,5.22
2022-11-07T16:29:44.097Z,4.07
2022-11-07T16:32:17.600Z,3.55
2022-11-07T16:34:45.637Z,5.70
2022-11-07T16:37:12.889Z,3.15
2022-11-07T16:39:40.008Z,11.93
2022-11-07T16:42:10.124Z,14.82
2022-11-07T16:44:37.238Z,11.85
2022-11-07T16:47:04.427Z,4.70
2022-11-07T16:49:33.762Z,19.92
2022-11-07T16:52:01.073Z,9.52
2022-11-07T16:54:28.130Z,12.57
2022-11-07T16:56:56.445Z,9.52
2022-11-07T16:59:24.845Z,7.50
2022-11-07T17:01:52.447Z,6.15
2022-11-07T17:04:19.625Z,5.50
2022-11-07T17:06:47.661Z,6.68
2022-11-07T17:09:24.662Z,8.98
2022-11-07T17:11:51.779Z,5.88
2022-11-07T17:14:18.914Z,5.22
2022-11-07T17:16:48.157Z,8.85
2022-11-07T17:19:15.533Z,11.52
2022-11-07T17:21:46.312Z,8.10
2022-11-07T17:24:13.881Z,7.40
2022-11-07T17:26:41.165Z,7.78
2022-11-07T17:29:09.214Z,6.28
2022-11-07T17:31:36.321Z,5.47
2022-11-07T17:34:03.549Z,3.08
2022-11-07T17:36:37.123Z,4.82
2022-11-07T17:39:11.223Z,8.48
2022-11-07T17:41:39.350Z,8.52
2022-11-07T17:44:06.760Z,12.50
2022-11-07T17:46:34.725Z,14.05
2022-11-07T17:49:02.769Z,14.07
2022-11-07T17:51:30.066Z,10.15
2022-11-07T17:53:57.898Z,8.60
2022-11-07T17:56:26.174Z,6.38
2022-11-07T17:58:54.556Z,8.05
2022-11-07T18:01:23.142Z,18.52
2022-11-07T18:03:51.315Z,14.45
2022-11-07T18:06:18.543Z,12.30
2022-11-07T18:08:52.284Z,13.02
2022-11-07T18:11:20.730Z,8.45
2022-11-07T18:13:50.663Z,9.38
2022-11-07T18:16:19.800Z,9.55
2022-11-07T18:18:47.122Z,15.68
2022-11-07T18:21:14.734Z,15.48
2022-11-07T18:23:42.292Z,13.52
2022-11-07T18:26:11.224Z,7.25
2022-11-07T18:28:39.097Z,9.60
2022-11-07T18:31:10.594Z,7.80
2022-11-07T18:33:38.038Z,5.07
2022-11-07T18:36:06.631Z,7.00
2022-11-07T18:38:33.881Z,9.80
2022-11-07T18:41:06.373Z,11.77
2022-11-07T18:43:34.016Z,7.05
2022-11-07T18:46:01.250Z,7.97
2022-11-07T18:48:29.752Z,12.02
2022-11-07T18:50:57.077Z,11.40
2022-11-07T18:53:24.857Z,12.13
2022-11-07T18:55:59.209Z,13.27
2022-11-07T18:58:28.002Z,11.68
2022-11-07T19:00:55.459Z,18.92
2022-11-07T19:03:22.898Z,14.82
2022-11-07T19:05:50.200Z,10.40
2022-11-07T19:08:17.606Z,8.93
2022-11-07T19:10:44.939Z,9.85
2022-11-07T19:13:12.008Z,13.95
2022-11-07T19:15:40.003Z,16.83
2022-11-07T19:18:07.119Z,23.42
2022-11-07T19:20:34.235Z,18.05
2022-11-07T19:23:01.371Z,19.15
2022-11-07T19:25:28.430Z,36.00
2022-11-07T19:27:55.545Z,36.33
2022-11-07T19:30:22.633Z,45.80
2022-11-07T19:32:51.255Z,36.30
2022-11-07T19:35:19.226Z,56.05
2022-11-07T19:37:46.338Z,48.38
2022-11-07T19:40:13.480Z,48.63
2022-11-07T19:42:40.540Z,40.97
2022-11-07T19:45:07.778Z,35.58
2022-11-07T19:47:34.857Z,30.40
2022-11-07T19:50:02.004Z,28.73
2022-11-07T19:52:29.097Z,25.25
2022-11-07T19:54:56.234Z,31.83
2022-11-07T19:57:23.359Z,29.92
2022-11-07T19:59:50.438Z,25.55
2022-11-07T20:02:32.337Z,30.88
2022-11-07T20:04:59.736Z,28.23
2022-11-07T20:07:26.870Z,25.15
2022-11-07T20:09:54.906Z,25.33
2022-11-07T20:12:22.098Z,30.48
2022-11-07T20:14:49.233Z,28.98
2022-11-07T20:17:16.352Z,29.33
2022-11-07T20:19:43.405Z,25.50
2022-11-07T20:22:12.171Z,25.48
2022-11-07T20:24:39.269Z,28.73
2022-11-07T20:27:06.390Z,32.25
2022-11-07T20:29:33.906Z,29.58
2022-11-07T20:32:00.985Z,26.88
2022-11-07T20:34:28.225Z,32.83
2022-11-07T20:36:55.352Z,29.15
2022-11-07T20:39:22.441Z,26.65
2022-11-07T20:41:49.515Z,32.35
2022-11-07T20:44:17.071Z,40.83
2022-11-07T20:46:45.397Z,40.35
2022-11-07T20:49:13.664Z,35.25
2022-11-07T20:51:41.184Z,32.78
2022-11-07T20:54:08.774Z,33.13
2022-11-07T20:56:35.990Z,26.95
2022-11-07T20:59:03.061Z,31.45
2022-11-07T21:01:35.838Z,42.15
2022-11-07T21:04:04.544Z,42.60
2022-11-07T21:06:31.758Z,49.05
2022-11-07T21:08:58.974Z,45.20
2022-11-07T21:11:26.882Z,35.10
2022-11-07T21:13:53.984Z,31.85
2022-11-07T21:16:22.149Z,34.03
2022-11-07T21:18:49.920Z,26.90
2022-11-07T21:21:20.171Z,29.88
2022-11-07T21:23:47.985Z,20.85
2022-11-07T21:26:17.072Z,24.45
2022-11-07T21:28:44.245Z,17.05
2022-11-07T21:31:16.598Z,16.65
2022-11-07T21:33:43.681Z,17.00
2022-11-07T21:36:11.964Z,14.90
2022-11-07T21:38:39.155Z,14.88
2022-11-07T21:41:06.879Z,13.90
2022-11-07T21:43:34.051Z,11.48
2022-11-07T21:46:07.918Z,11.73
2022-11-07T21:48:35.989Z,12.57
2022-11-07T21:51:06.930Z,12.70
2022-11-07T21:53:37.650Z,13.52
2022-11-07T21:56:06.767Z,15.32
2022-11-07T21:58:34.131Z,14.93
2022-11-07T22:01:02.548Z,16.02
2022-11-07T22:03:51.493Z,15.38
2022-11-07T22:06:19.537Z,17.95
2022-11-07T22:08:47.579Z,17.48
2022-11-07T22:11:15.318Z,15.82
2022-11-07T22:13:42.563Z,14.65
2022-11-07T22:16:12.376Z,16.70
2022-11-07T22:18:39.653Z,13.35
2022-11-07T22:21:07.394Z,13.60
2022-11-07T22:23:35.617Z,11.43
2022-11-07T22:26:11.152Z,16.77
2022-11-07T22:28:42.871Z,13.07
2022-11-07T22:31:17.142Z,14.00
2022-11-07T22:33:44.249Z,19.90
2022-11-07T22:36:11.888Z,14.13
2022-11-07T22:38:39.542Z,17.33
2022-11-07T22:41:07.380Z,8.75
2022-11-07T22:43:35.110Z,13.32
2022-11-07T22:46:09.556Z,12.65
2022-11-07T22:48:36.838Z,13.20
2022-11-07T22:51:03.962Z,7.63
2022-11-07T22:53:31.160Z,7.55
2022-11-07T22:55:58.269Z,8.35
2022-11-07T22:58:25.392Z,7.50
2022-11-07T23:00:52.533Z,6.15
2022-11-07T23:03:19.756Z,8.02
2022-11-07T23:05:46.892Z,5.70
2022-11-07T23:08:14.205Z,8.02
2022-11-07T23:10:41.641Z,11.43
2022-11-07T23:13:08.721Z,11.93
2022-11-07T23:15:35.803Z,8.73
2022-11-07T23:18:02.871Z,11.65
2022-11-07T23:20:48.863Z,8.02
2022-11-07T23:23:15.979Z,6.95
2022-11-07T23:25:43.064Z,7.32
2022-11-07T23:28:10.169Z,5.63
2022-11-07T23:30:38.985Z,6.32
2022-11-07T23:33:06.073Z,8.35
2022-11-07T23:35:33.192Z,9.25
2022-11-07T23:38:00.417Z,9.82
2022-11-07T23:40:27.501Z,9.32
2022-11-07T23:42:54.615Z,8.65
2022-11-07T23:45:40.408Z,9.25
2022-11-07T23:48:27.932Z,9.98
2022-11-07T23:51:04.324Z,11.77
2022-11-07T23:53:50.887Z,6.00
2022-11-07T23:56:18.718Z,7.22
2022-11-07T23:59:04.676Z,7.30
